Terminal Aerodrome Forecast
Issued by NWS Jackson, MS

Home | Current Version | Previous Version | Text Only | Print | Product List | Glossary On
Versions: 1 2 3 4 5 6 7 8 9 10 11 12 13 14
214
FTUS44 KJAN 281120
TAFMEI
TAF
KMEI 281120Z 2812/0112 17009KT 4SM BR OVC004
     FM281600 18012KT P6SM SCT007 BKN015
     FM282000 19014G23KT P6SM BKN025
     FM010000 17012KT P6SM OVC015
     FM010600 20015KT P6SM OVC010=

USA.gov is the U.S. government's official web portal to all federal, state and local government web resources and services.